Main page
Satellite images Climate Cyclones Lightning AirportsFAQ Languages Contact Newsletter About
Weather : Europe Africa North America South America Asia Australia-Oceania Others

1216, Hong Kong, Hong Kong International Airport

latitude: , longitude: China, elevation: 22-19N m


METAR: VHHH 221030Z 01013KT CAVOK 20/12 Q1016 NOSIG